createdAt,value
2024-02-27T00:00:54.836Z,21.76
2024-02-27T00:01:54.796Z,21.77
2024-02-27T00:02:54.919Z,21.79
2024-02-27T00:03:54.839Z,21.78
2024-02-27T00:04:54.855Z,21.75
2024-02-27T00:05:54.987Z,21.72
2024-02-27T00:06:54.995Z,21.70
2024-02-27T00:07:55.059Z,21.71
2024-02-27T00:08:54.959Z,21.71
2024-02-27T00:09:54.940Z,21.72
2024-02-27T00:10:55.013Z,21.74
2024-02-27T00:11:55.002Z,21.77
2024-02-27T00:12:55.015Z,21.77
2024-02-27T00:13:55.059Z,21.77
2024-02-27T00:14:55.076Z,21.76
2024-02-27T00:15:55.069Z,21.77
2024-02-27T00:16:55.102Z,21.78
2024-02-27T00:17:55.303Z,21.78
2024-02-27T00:18:55.262Z,21.78
2024-02-27T00:19:55.301Z,21.78
2024-02-27T00:20:55.291Z,21.78
2024-02-27T00:21:55.343Z,21.78
2024-02-27T00:22:55.361Z,21.74
2024-02-27T00:23:55.524Z,21.72
2024-02-27T00:24:55.461Z,21.71
2024-02-27T00:25:55.463Z,21.72
2024-02-27T00:26:55.589Z,21.73
2024-02-27T00:27:55.498Z,21.75
2024-02-27T00:28:55.531Z,21.77
2024-02-27T00:29:55.583Z,21.80
2024-02-27T00:30:55.578Z,21.81
2024-02-27T00:31:55.611Z,21.83
2024-02-27T00:32:55.757Z,21.82
2024-02-27T00:33:55.783Z,21.81
2024-02-27T00:34:55.834Z,21.80
2024-02-27T00:35:55.822Z,21.80
2024-02-27T00:36:55.834Z,21.78
2024-02-27T00:37:55.850Z,21.78
2024-02-27T00:38:55.987Z,21.78
2024-02-27T00:39:55.998Z,21.78
2024-02-27T00:40:55.944Z,21.77
2024-02-27T00:41:56.012Z,21.75
2024-02-27T00:42:56.000Z,21.75
2024-02-27T00:43:56.026Z,21.73
2024-02-27T00:44:56.069Z,21.74
2024-02-27T00:45:56.056Z,21.73
2024-02-27T00:46:56.076Z,21.73
2024-02-27T00:47:56.221Z,21.71
2024-02-27T00:48:56.207Z,21.67
2024-02-27T00:49:56.206Z,21.65
2024-02-27T00:50:56.216Z,21.64
2024-02-27T00:51:56.192Z,21.65
2024-02-27T00:52:56.163Z,21.64
2024-02-27T00:53:56.210Z,21.63
2024-02-27T00:54:56.185Z,21.63
2024-02-27T00:55:56.280Z,21.64
2024-02-27T00:56:56.271Z,21.67
2024-02-27T00:57:56.236Z,21.69
2024-02-27T00:58:56.281Z,21.71
2024-02-27T00:59:56.314Z,21.72
2024-02-27T01:00:56.355Z,21.74
2024-02-27T01:01:56.347Z,21.75
2024-02-27T01:02:56.413Z,21.73
2024-02-27T01:03:56.334Z,21.74
2024-02-27T01:04:56.460Z,21.72
2024-02-27T01:05:56.488Z,21.71
2024-02-27T01:06:56.410Z,21.70
2024-02-27T01:07:56.384Z,21.69
2024-02-27T01:08:56.494Z,21.65
2024-02-27T01:09:56.411Z,21.60
2024-02-27T01:10:56.428Z,21.56
2024-02-27T01:11:56.578Z,21.54
2024-02-27T01:12:56.440Z,21.54
2024-02-27T01:13:56.430Z,21.55
2024-02-27T01:14:56.547Z,21.57
2024-02-27T01:15:56.495Z,21.56
2024-02-27T01:16:56.513Z,21.53
2024-02-27T01:17:56.582Z,21.51
2024-02-27T01:18:56.667Z,21.52
2024-02-27T01:19:56.581Z,21.54
2024-02-27T01:20:56.591Z,21.54
2024-02-27T01:21:56.588Z,21.57
2024-02-27T01:22:56.622Z,21.58
2024-02-27T01:23:56.616Z,21.59
2024-02-27T01:24:56.596Z,21.55
2024-02-27T01:25:56.594Z,21.51
2024-02-27T01:26:56.622Z,21.46
2024-02-27T01:27:56.745Z,21.45
2024-02-27T01:28:56.667Z,21.42
2024-02-27T01:29:56.812Z,21.45
2024-02-27T01:30:56.689Z,21.47
2024-02-27T01:31:56.759Z,21.49
2024-02-27T01:32:56.911Z,21.52
2024-02-27T01:33:56.917Z,21.56
2024-02-27T01:34:57.008Z,21.57
2024-02-27T01:35:56.935Z,21.59
2024-02-27T01:36:56.818Z,21.61
2024-02-27T01:37:56.848Z,21.65
2024-02-27T01:38:56.870Z,21.68
2024-02-27T01:39:56.842Z,21.68
2024-02-27T01:40:56.856Z,21.67
2024-02-27T01:41:56.894Z,21.67
2024-02-27T01:42:56.858Z,21.67
2024-02-27T01:43:56.943Z,21.67
2024-02-27T01:44:56.964Z,21.68
2024-02-27T01:45:56.887Z,21.70
2024-02-27T01:46:56.944Z,21.70
2024-02-27T01:47:57.153Z,21.69
2024-02-27T01:48:57.064Z,21.68
2024-02-27T01:49:57.063Z,21.67
2024-02-27T01:50:57.062Z,21.68
2024-02-27T01:51:57.040Z,21.69
2024-02-27T01:52:57.021Z,21.67
2024-02-27T01:53:57.070Z,21.66
2024-02-27T01:54:57.076Z,21.67
2024-02-27T01:55:57.078Z,21.68
2024-02-27T01:56:57.151Z,21.69
2024-02-27T01:57:57.117Z,21.73
2024-02-27T01:58:57.162Z,21.76
2024-02-27T01:59:57.367Z,21.80
2024-02-27T02:00:57.412Z,21.81
2024-02-27T02:01:57.308Z,21.84
2024-02-27T02:02:57.373Z,21.87
2024-02-27T02:03:57.477Z,21.91
2024-02-27T02:04:57.507Z,21.93
2024-02-27T02:05:57.603Z,21.92
2024-02-27T02:06:57.679Z,21.92
2024-02-27T02:07:57.670Z,21.92
2024-02-27T02:08:57.732Z,21.93
2024-02-27T02:09:57.777Z,21.94
2024-02-27T02:10:57.880Z,21.97
2024-02-27T02:11:57.980Z,22.00
2024-02-27T02:12:57.986Z,22.04
2024-02-27T02:13:58.021Z,22.06
2024-02-27T02:14:58.175Z,22.05
2024-02-27T02:15:58.290Z,22.04
2024-02-27T02:16:58.197Z,22.03
2024-02-27T02:17:58.277Z,22.04
2024-02-27T02:18:58.361Z,22.04
2024-02-27T02:19:58.345Z,22.04
2024-02-27T02:20:58.378Z,22.04
2024-02-27T02:21:58.411Z,22.05
2024-02-27T02:22:58.506Z,22.06
2024-02-27T02:23:58.558Z,22.09
2024-02-27T02:24:58.571Z,22.12
2024-02-27T02:25:58.613Z,22.16
2024-02-27T02:26:58.657Z,22.18
2024-02-27T02:27:58.758Z,22.21
2024-02-27T02:28:58.746Z,22.25
2024-02-27T02:29:58.816Z,22.27
2024-02-27T02:30:58.822Z,22.30
2024-02-27T02:31:58.952Z,22.32
2024-02-27T02:32:58.954Z,22.33
2024-02-27T02:33:59.079Z,22.35
2024-02-27T02:34:59.135Z,22.34
2024-02-27T02:35:59.066Z,22.33
2024-02-27T02:36:59.074Z,22.30
2024-02-27T02:37:59.115Z,22.29
2024-02-27T02:38:59.156Z,22.28
2024-02-27T02:39:59.204Z,22.29
2024-02-27T02:40:59.219Z,22.31
2024-02-27T02:41:59.292Z,22.33
2024-02-27T02:42:59.317Z,22.36
2024-02-27T02:43:59.358Z,22.38
2024-02-27T02:44:59.442Z,22.41
2024-02-27T02:45:59.439Z,22.43
2024-02-27T02:46:59.470Z,22.45
2024-02-27T02:47:59.685Z,22.46
2024-02-27T02:48:59.592Z,22.46
2024-02-27T02:49:59.551Z,22.48
2024-02-27T02:50:59.587Z,22.50
2024-02-27T02:51:59.614Z,22.50
2024-02-27T02:52:59.619Z,22.51
2024-02-27T02:54:00.731Z,22.51
2024-02-27T02:54:59.673Z,22.51
2024-02-27T02:55:59.712Z,22.49
2024-02-27T02:56:59.771Z,22.47
2024-02-27T02:57:59.800Z,22.44
2024-02-27T02:58:59.818Z,22.39
2024-02-27T02:59:59.901Z,22.37
2024-02-27T03:01:00.028Z,22.36
2024-02-27T03:01:59.988Z,22.37
2024-02-27T03:03:00.031Z,22.37
2024-02-27T03:04:00.201Z,22.39
2024-02-27T03:05:00.089Z,22.41
2024-02-27T03:06:00.270Z,22.43
2024-02-27T03:07:00.300Z,22.45
2024-02-27T03:08:00.279Z,22.48
2024-02-27T03:09:00.304Z,22.50
2024-02-27T03:10:00.280Z,22.52
2024-02-27T03:11:00.354Z,22.54
2024-02-27T03:12:00.361Z,22.55
2024-02-27T03:13:00.362Z,22.56
2024-02-27T03:14:00.421Z,22.56
2024-02-27T03:15:00.516Z,22.56
2024-02-27T03:16:00.482Z,22.56
2024-02-27T03:17:00.500Z,22.57
2024-02-27T03:18:00.623Z,22.57
2024-02-27T03:19:00.626Z,22.56
2024-02-27T03:20:00.575Z,22.56
2024-02-27T03:21:00.613Z,22.57
2024-02-27T03:22:00.627Z,22.58
2024-02-27T03:23:00.651Z,22.60
2024-02-27T03:24:00.733Z,22.61
2024-02-27T03:25:00.702Z,22.62
2024-02-27T03:26:00.744Z,22.62
2024-02-27T03:27:00.795Z,22.63
2024-02-27T03:28:00.773Z,22.63
2024-02-27T03:29:00.804Z,22.64
2024-02-27T03:30:00.877Z,22.65
2024-02-27T03:31:00.864Z,22.66
2024-02-27T03:32:00.858Z,22.68
2024-02-27T03:33:01.128Z,22.69
2024-02-27T03:34:00.939Z,22.70
2024-02-27T03:35:01.018Z,22.72
2024-02-27T03:36:01.091Z,22.74
2024-02-27T03:37:00.954Z,22.76
2024-02-27T03:38:00.958Z,22.79
2024-02-27T03:39:01.021Z,22.80
2024-02-27T03:40:01.016Z,22.82
2024-02-27T03:41:01.024Z,22.83
2024-02-27T03:42:01.087Z,22.84
2024-02-27T03:43:01.124Z,22.84
2024-02-27T03:44:01.063Z,22.80
2024-02-27T03:45:01.122Z,22.77
2024-02-27T03:46:01.114Z,22.75
2024-02-27T03:47:01.111Z,22.73
2024-02-27T03:48:01.207Z,22.71
2024-02-27T03:49:01.226Z,22.69
2024-02-27T03:50:01.255Z,22.67
2024-02-27T03:51:01.246Z,22.65
2024-02-27T03:52:01.326Z,22.64
2024-02-27T03:53:01.294Z,22.62
2024-02-27T03:54:01.339Z,22.59
2024-02-27T03:55:01.354Z,22.56
2024-02-27T03:56:01.377Z,22.54
2024-02-27T03:57:01.461Z,22.49
2024-02-27T03:58:01.458Z,22.44
2024-02-27T03:59:01.496Z,22.43
2024-02-27T04:00:01.612Z,22.44
2024-02-27T04:01:01.749Z,22.44
2024-02-27T04:02:01.661Z,22.46
2024-02-27T04:03:01.744Z,22.47
2024-02-27T04:04:01.726Z,22.48
2024-02-27T04:05:01.827Z,22.48
2024-02-27T04:06:01.943Z,22.48
2024-02-27T04:07:01.984Z,22.49
2024-02-27T04:08:01.967Z,22.49
2024-02-27T04:09:02.032Z,22.52
2024-02-27T04:10:01.945Z,22.53
2024-02-27T04:11:01.994Z,22.55
2024-02-27T04:12:02.106Z,22.57
2024-02-27T04:13:02.061Z,22.60
2024-02-27T04:14:02.081Z,22.61
2024-02-27T04:15:02.176Z,22.60
2024-02-27T04:16:02.178Z,22.59
2024-02-27T04:17:02.184Z,22.59
2024-02-27T04:18:02.295Z,22.59
2024-02-27T04:19:02.331Z,22.61
2024-02-27T04:20:02.397Z,22.63
2024-02-27T04:21:02.442Z,22.64
2024-02-27T04:22:02.295Z,22.65
2024-02-27T04:23:02.296Z,22.67
2024-02-27T04:24:02.455Z,22.68
2024-02-27T04:25:02.348Z,22.67
2024-02-27T04:26:02.357Z,22.66
2024-02-27T04:27:02.402Z,22.65
2024-02-27T04:28:02.387Z,22.64
2024-02-27T04:29:02.391Z,22.64
2024-02-27T04:30:02.464Z,22.64
2024-02-27T04:31:02.441Z,22.64
2024-02-27T04:32:02.508Z,22.65
2024-02-27T04:33:02.659Z,22.66
2024-02-27T04:34:02.580Z,22.67
2024-02-27T04:35:02.576Z,22.67
2024-02-27T04:36:09.905Z,22.66
2024-02-27T04:37:09.812Z,22.69
2024-02-27T04:38:09.823Z,22.70
2024-02-27T04:39:09.930Z,22.71
2024-02-27T04:40:09.818Z,22.72
2024-02-27T04:41:09.829Z,22.73
2024-02-27T04:42:09.855Z,22.73
2024-02-27T04:43:09.845Z,22.73
2024-02-27T04:44:09.819Z,22.73
2024-02-27T04:45:09.913Z,22.74
2024-02-27T04:46:09.827Z,22.73
2024-02-27T04:47:09.820Z,22.70
2024-02-27T04:48:09.908Z,22.69
2024-02-27T04:49:09.900Z,22.69
2024-02-27T04:50:09.837Z,22.68
2024-02-27T04:51:09.877Z,22.67
2024-02-27T04:52:09.851Z,22.68
2024-02-27T04:53:09.856Z,22.68
2024-02-27T04:54:09.853Z,22.69
2024-02-27T04:55:09.915Z,22.70
2024-02-27T04:56:09.815Z,22.69
2024-02-27T04:57:09.948Z,22.68
2024-02-27T04:58:09.858Z,22.68
2024-02-27T04:59:09.852Z,22.67
2024-02-27T05:00:09.916Z,22.67
2024-02-27T05:01:09.853Z,22.67
2024-02-27T05:02:09.837Z,22.67
2024-02-27T05:03:09.878Z,22.69
2024-02-27T05:04:10.472Z,22.68
2024-02-27T05:05:09.856Z,22.68
2024-02-27T05:06:09.969Z,22.66
2024-02-27T05:07:09.917Z,22.63
2024-02-27T05:08:09.882Z,22.62
2024-02-27T05:09:09.898Z,22.62
2024-02-27T05:10:09.910Z,22.63
2024-02-27T05:11:10.026Z,22.64
2024-02-27T05:12:09.996Z,22.65
2024-02-27T05:13:09.963Z,22.66
2024-02-27T05:14:09.968Z,22.67
2024-02-27T05:15:10.021Z,22.68
2024-02-27T05:16:09.986Z,22.67
2024-02-27T05:17:10.003Z,22.68
2024-02-27T05:18:10.199Z,22.68
2024-02-27T05:19:10.085Z,22.69
2024-02-27T05:20:10.028Z,22.70
2024-02-27T05:21:10.065Z,22.70
2024-02-27T05:22:10.083Z,22.72
2024-02-27T05:23:10.063Z,22.73
2024-02-27T05:24:10.148Z,22.74
2024-02-27T05:25:10.071Z,22.75
2024-02-27T05:26:10.118Z,22.76
2024-02-27T05:27:10.210Z,22.77
2024-02-27T05:28:10.136Z,22.76
2024-02-27T05:29:10.137Z,22.77
2024-02-27T05:30:10.285Z,22.78
2024-02-27T05:31:10.153Z,22.78
2024-02-27T05:32:10.189Z,22.77
2024-02-27T05:33:10.284Z,22.75
2024-02-27T05:34:10.279Z,22.72
2024-02-27T05:35:10.220Z,22.70
2024-02-27T05:36:10.232Z,22.68
2024-02-27T05:37:10.228Z,22.65
2024-02-27T05:38:10.302Z,22.61
2024-02-27T05:39:10.351Z,22.58
2024-02-27T05:40:11.684Z,22.54
2024-02-27T05:41:10.336Z,22.51
2024-02-27T05:42:10.380Z,22.47
2024-02-27T05:43:10.474Z,22.44
2024-02-27T05:44:10.453Z,22.41
2024-02-27T05:45:10.537Z,22.39
2024-02-27T05:46:10.508Z,22.37
2024-02-27T05:47:10.534Z,22.36
2024-02-27T05:48:10.697Z,22.37
2024-02-27T05:49:10.688Z,22.37
2024-02-27T05:50:10.743Z,22.35
2024-02-27T05:51:10.812Z,22.36
2024-02-27T05:52:10.754Z,22.38
2024-02-27T05:53:10.803Z,22.40
2024-02-27T05:54:10.851Z,22.42
2024-02-27T05:55:10.885Z,22.44
2024-02-27T05:56:10.934Z,22.45
2024-02-27T05:57:10.968Z,22.45
2024-02-27T05:58:11.479Z,22.44
2024-02-27T05:59:11.122Z,22.44
2024-02-27T06:00:12.034Z,22.44
2024-02-27T06:01:33.722Z,22.46
2024-02-27T06:02:11.112Z,22.45
2024-02-27T06:03:11.153Z,22.49
2024-02-27T06:04:11.184Z,22.50
2024-02-27T06:05:11.119Z,22.52
2024-02-27T06:06:11.178Z,22.54
2024-02-27T06:07:11.324Z,22.55
2024-02-27T06:08:11.132Z,22.57
2024-02-27T06:09:11.151Z,22.58
2024-02-27T06:10:11.118Z,22.59
2024-02-27T06:11:11.213Z,22.60
2024-02-27T06:12:11.262Z,22.61
2024-02-27T06:13:11.139Z,22.63
2024-02-27T06:14:11.161Z,22.64
2024-02-27T06:15:11.190Z,22.65
2024-02-27T06:16:11.162Z,22.67
2024-02-27T06:17:11.176Z,22.68
2024-02-27T06:18:11.712Z,22.69
2024-02-27T06:19:11.211Z,22.71
2024-02-27T06:20:13.989Z,22.71
2024-02-27T06:21:11.172Z,22.73
2024-02-27T06:22:11.147Z,22.72
2024-02-27T06:23:11.176Z,22.73
2024-02-27T06:24:11.213Z,22.75
2024-02-27T06:25:11.181Z,22.76
2024-02-27T06:26:11.143Z,22.77
2024-02-27T06:27:11.273Z,22.78
2024-02-27T06:28:11.165Z,22.80
2024-02-27T06:29:11.142Z,22.80
2024-02-27T06:30:11.256Z,22.81
2024-02-27T06:31:11.144Z,22.82
2024-02-27T06:32:11.185Z,22.82
2024-02-27T06:33:11.651Z,22.83
2024-02-27T06:34:11.240Z,22.83
2024-02-27T06:35:11.148Z,22.84
2024-02-27T06:36:12.036Z,22.83
2024-02-27T06:37:12.020Z,22.82
2024-02-27T06:38:11.535Z,22.80
2024-02-27T06:39:11.237Z,22.78
2024-02-27T06:40:11.174Z,22.75
2024-02-27T06:41:11.158Z,22.71
2024-02-27T06:42:11.213Z,22.68
2024-02-27T06:43:11.178Z,22.68
2024-02-27T06:44:11.176Z,22.67
2024-02-27T06:45:33.828Z,22.67
2024-02-27T06:46:11.202Z,22.64
2024-02-27T06:47:11.248Z,22.70
2024-02-27T06:48:11.731Z,22.74
2024-02-27T06:49:15.822Z,22.80
2024-02-27T06:50:12.288Z,22.85
2024-02-27T06:51:11.205Z,22.91
2024-02-27T06:52:11.157Z,22.97
2024-02-27T06:53:11.205Z,23.02
2024-02-27T06:54:11.226Z,23.09
2024-02-27T06:55:11.185Z,23.17
2024-02-27T06:56:11.203Z,23.23
2024-02-27T06:57:11.266Z,23.30
2024-02-27T06:58:11.211Z,23.36
2024-02-27T06:59:11.299Z,23.42
2024-02-27T07:00:11.381Z,23.46
2024-02-27T07:01:11.377Z,23.52
2024-02-27T07:02:11.440Z,23.55
2024-02-27T07:03:11.655Z,23.59
2024-02-27T07:04:11.579Z,23.60
2024-02-27T07:05:11.615Z,23.62
2024-02-27T07:06:11.664Z,23.63
2024-02-27T07:07:12.679Z,23.63
2024-02-27T07:08:12.016Z,23.64
2024-02-27T07:09:11.783Z,23.66
2024-02-27T07:10:12.436Z,23.67
2024-02-27T07:11:11.785Z,23.69
2024-02-27T07:12:11.850Z,23.71
2024-02-27T07:13:11.892Z,23.75
2024-02-27T07:14:11.841Z,23.76
2024-02-27T07:15:11.893Z,23.78
2024-02-27T07:16:11.895Z,23.80
2024-02-27T07:17:11.971Z,23.82
2024-02-27T07:18:12.098Z,23.84
2024-02-27T07:19:12.066Z,23.85
2024-02-27T07:20:11.966Z,23.87
2024-02-27T07:21:11.979Z,23.88
2024-02-27T07:22:11.988Z,23.89
2024-02-27T07:23:12.049Z,23.92
2024-02-27T07:24:12.091Z,23.93
2024-02-27T07:25:12.049Z,23.94
2024-02-27T07:26:12.048Z,23.94
2024-02-27T07:27:12.095Z,23.96
2024-02-27T07:28:17.404Z,23.98
2024-02-27T07:29:13.090Z,23.98
2024-02-27T07:30:12.181Z,23.99
2024-02-27T07:31:12.319Z,23.99
2024-02-27T07:32:12.216Z,24.00
2024-02-27T07:33:12.430Z,24.01
2024-02-27T07:34:12.376Z,24.02
2024-02-27T07:35:12.396Z,24.03
2024-02-27T07:36:12.387Z,24.04
2024-02-27T07:37:12.354Z,24.06
2024-02-27T07:38:12.363Z,24.05
2024-02-27T07:39:12.581Z,24.06
2024-02-27T07:40:12.485Z,24.06
2024-02-27T07:41:12.552Z,24.05
2024-02-27T07:42:12.577Z,24.07
2024-02-27T07:43:12.623Z,24.07
2024-02-27T07:44:12.611Z,24.07
2024-02-27T07:45:12.698Z,24.07
2024-02-27T07:46:12.727Z,24.07
2024-02-27T07:47:12.748Z,24.06
2024-02-27T07:48:12.951Z,23.99
2024-02-27T07:49:12.785Z,23.94
2024-02-27T07:50:12.774Z,23.85
2024-02-27T07:51:12.914Z,23.75
2024-02-27T07:52:12.917Z,23.66
2024-02-27T07:53:12.895Z,23.59
2024-02-27T07:54:12.972Z,23.54
2024-02-27T07:55:13.537Z,23.50
2024-02-27T07:56:13.060Z,23.45
2024-02-27T07:57:13.099Z,23.41
2024-02-27T07:58:13.128Z,23.37
2024-02-27T07:59:13.190Z,23.29
2024-02-27T08:00:13.275Z,23.24
2024-02-27T08:01:15.219Z,23.26
2024-02-27T08:02:13.357Z,23.27
2024-02-27T08:03:13.528Z,23.27
2024-02-27T08:04:13.633Z,23.29
2024-02-27T08:05:13.454Z,23.29
2024-02-27T08:06:13.688Z,23.27
2024-02-27T08:07:13.897Z,23.28
2024-02-27T08:08:13.662Z,23.30
2024-02-27T08:09:14.090Z,23.31
2024-02-27T08:10:13.794Z,23.27
2024-02-27T08:11:13.915Z,23.27
2024-02-27T08:12:13.913Z,23.27
2024-02-27T08:13:14.006Z,23.29
2024-02-27T08:14:15.721Z,23.32
2024-02-27T08:15:14.134Z,23.35
2024-02-27T08:16:15.243Z,23.41
2024-02-27T08:17:14.206Z,23.42
2024-02-27T08:18:14.338Z,23.45
2024-02-27T08:19:14.655Z,23.51
2024-02-27T08:20:14.384Z,23.56
2024-02-27T08:21:14.440Z,23.60
2024-02-27T08:22:14.484Z,23.61
2024-02-27T08:23:14.662Z,23.67
2024-02-27T08:24:15.100Z,23.68
2024-02-27T08:25:14.629Z,23.66
2024-02-27T08:26:14.679Z,23.62
2024-02-27T08:27:14.748Z,23.61
2024-02-27T08:28:14.764Z,23.59
2024-02-27T08:29:15.088Z,23.63
2024-02-27T08:30:15.546Z,23.66
2024-02-27T08:31:14.987Z,23.65
2024-02-27T08:32:15.005Z,23.63
2024-02-27T08:33:15.120Z,23.59
2024-02-27T08:34:15.678Z,23.61
2024-02-27T08:35:15.116Z,23.61
2024-02-27T08:36:15.174Z,23.61
2024-02-27T08:37:15.236Z,23.63
2024-02-27T08:38:15.262Z,23.64
2024-02-27T08:39:15.468Z,23.66
2024-02-27T08:40:15.367Z,23.66
2024-02-27T08:41:15.437Z,23.67
2024-02-27T08:42:15.510Z,23.65
2024-02-27T08:43:15.494Z,23.64
2024-02-27T08:44:16.113Z,23.63
2024-02-27T08:45:15.651Z,23.62
2024-02-27T08:46:15.718Z,23.65
2024-02-27T08:47:15.729Z,23.68
2024-02-27T08:48:15.859Z,23.71
2024-02-27T08:49:15.894Z,23.73
2024-02-27T08:50:15.875Z,23.75
2024-02-27T08:51:15.989Z,23.77
2024-02-27T08:52:15.962Z,23.78
2024-02-27T08:53:16.011Z,23.80
2024-02-27T08:54:16.139Z,23.83
2024-02-27T08:55:16.143Z,23.86
2024-02-27T08:56:16.122Z,23.89
2024-02-27T08:57:16.172Z,23.91
2024-02-27T08:58:16.156Z,23.91
2024-02-27T08:59:16.205Z,23.93
2024-02-27T09:00:16.341Z,23.95
2024-02-27T09:01:16.309Z,23.97
2024-02-27T09:02:16.279Z,23.99
2024-02-27T09:03:16.401Z,24.00
2024-02-27T09:04:16.449Z,24.02
2024-02-27T09:05:16.394Z,24.04
2024-02-27T09:06:16.482Z,24.06
2024-02-27T09:07:16.585Z,24.06
2024-02-27T09:08:16.454Z,24.08
2024-02-27T09:09:16.517Z,24.11
2024-02-27T09:10:16.461Z,24.13
2024-02-27T09:11:16.575Z,24.13
2024-02-27T09:12:16.586Z,24.14
2024-02-27T09:13:16.462Z,24.15
2024-02-27T09:14:16.528Z,24.16
2024-02-27T09:15:16.566Z,24.19
2024-02-27T09:16:16.528Z,24.22
2024-02-27T09:17:16.546Z,24.26
2024-02-27T09:18:16.736Z,24.28
2024-02-27T09:19:16.652Z,24.29
2024-02-27T09:20:16.601Z,24.32
2024-02-27T09:21:16.655Z,24.34
2024-02-27T09:22:16.671Z,24.35
2024-02-27T09:23:16.717Z,24.37
2024-02-27T09:24:16.775Z,24.38
2024-02-27T09:25:16.803Z,24.40
2024-02-27T09:26:16.842Z,24.41
2024-02-27T09:27:17.005Z,24.43
2024-02-27T09:28:16.957Z,24.45
2024-02-27T09:29:17.139Z,24.46
2024-02-27T09:30:17.082Z,24.46
2024-02-27T09:31:24.096Z,24.48
2024-02-27T09:32:20.033Z,24.48
2024-02-27T09:33:17.292Z,24.48
2024-02-27T09:34:17.246Z,24.49
2024-02-27T09:35:17.179Z,24.49
2024-02-27T09:36:17.168Z,24.51
2024-02-27T09:37:17.142Z,24.52
2024-02-27T09:38:17.139Z,24.53
2024-02-27T09:39:17.152Z,24.53
2024-02-27T09:40:17.265Z,24.53
2024-02-27T09:41:17.132Z,24.54
2024-02-27T09:42:33.902Z,24.48
2024-02-27T09:43:18.292Z,24.41
2024-02-27T09:44:17.260Z,24.33
2024-02-27T09:45:17.165Z,24.28
2024-02-27T09:46:17.162Z,24.23
2024-02-27T09:47:17.153Z,24.22
2024-02-27T09:48:17.321Z,24.26
2024-02-27T09:49:28.900Z,24.26
2024-02-27T09:50:18.643Z,24.23
2024-02-27T09:51:17.202Z,24.17
2024-02-27T09:52:17.192Z,24.14
2024-02-27T09:53:17.181Z,24.15
2024-02-27T09:54:17.152Z,24.18
2024-02-27T09:55:17.636Z,24.20
2024-02-27T09:56:17.175Z,24.24
2024-02-27T09:57:17.198Z,24.24
2024-02-27T09:58:17.278Z,24.25
2024-02-27T09:59:17.270Z,24.24
2024-02-27T10:00:17.357Z,24.18
2024-02-27T10:01:17.393Z,24.13
2024-02-27T10:02:17.440Z,24.07
2024-02-27T10:03:17.222Z,23.99
2024-02-27T10:04:17.274Z,23.97
2024-02-27T10:05:17.668Z,23.93
2024-02-27T10:06:18.181Z,23.88
2024-02-27T10:07:17.192Z,23.85
2024-02-27T10:08:17.198Z,23.84
2024-02-27T10:09:17.218Z,23.83
2024-02-27T10:10:17.687Z,23.82
2024-02-27T10:11:17.212Z,23.82
2024-02-27T10:12:17.245Z,23.81
2024-02-27T10:13:17.229Z,23.80
2024-02-27T10:14:17.245Z,23.77
2024-02-27T10:15:17.471Z,23.71
2024-02-27T10:16:17.308Z,23.68
2024-02-27T10:17:17.354Z,23.65
2024-02-27T10:18:17.549Z,23.66
2024-02-27T10:19:17.513Z,23.67
2024-02-27T10:20:17.500Z,23.73
2024-02-27T10:21:17.538Z,23.79
2024-02-27T10:22:17.589Z,23.85
2024-02-27T10:23:17.619Z,23.88
2024-02-27T10:24:17.663Z,23.93
2024-02-27T10:25:17.650Z,23.94
2024-02-27T10:26:17.684Z,23.97
2024-02-27T10:27:17.758Z,23.99
2024-02-27T10:28:17.729Z,24.01
2024-02-27T10:29:17.787Z,24.08
2024-02-27T10:30:17.817Z,24.09
2024-02-27T10:31:17.837Z,24.03
2024-02-27T10:32:17.814Z,24.02
2024-02-27T10:33:17.973Z,23.98
2024-02-27T10:34:18.009Z,23.93
2024-02-27T10:35:18.393Z,23.88
2024-02-27T10:36:18.156Z,23.85
2024-02-27T10:37:18.042Z,23.81
2024-02-27T10:38:18.045Z,23.78
2024-02-27T10:39:18.130Z,23.75
2024-02-27T10:40:18.645Z,23.73
2024-02-27T10:41:18.168Z,23.72
2024-02-27T10:42:18.233Z,23.69
2024-02-27T10:43:18.298Z,23.66
2024-02-27T10:44:18.298Z,23.63
2024-02-27T10:45:18.344Z,23.56
2024-02-27T10:46:18.381Z,23.57
2024-02-27T10:47:18.389Z,23.58
2024-02-27T10:48:21.759Z,23.59
2024-02-27T10:49:19.550Z,23.60
2024-02-27T10:50:18.718Z,23.62
2024-02-27T10:51:18.429Z,23.62
2024-02-27T10:52:18.420Z,23.66
2024-02-27T10:53:18.403Z,23.69
2024-02-27T10:54:19.542Z,23.71
2024-02-27T10:55:18.642Z,23.72
2024-02-27T10:56:18.400Z,23.73
2024-02-27T10:57:18.399Z,23.73
2024-02-27T10:58:18.415Z,23.73
2024-02-27T10:59:18.397Z,23.72
2024-02-27T11:00:18.682Z,23.71
2024-02-27T11:01:18.455Z,23.70
2024-02-27T11:02:18.435Z,23.69
2024-02-27T11:03:18.450Z,23.67
2024-02-27T11:04:18.403Z,23.67
2024-02-27T11:05:18.882Z,23.66
2024-02-27T11:06:18.448Z,23.65
2024-02-27T11:07:18.554Z,23.65
2024-02-27T11:08:18.402Z,23.63
2024-02-27T11:09:18.403Z,23.62
2024-02-27T11:10:18.621Z,23.61
2024-02-27T11:11:18.503Z,23.59
2024-02-27T11:12:18.816Z,23.58
2024-02-27T11:13:18.587Z,23.57
2024-02-27T11:14:18.678Z,23.57
2024-02-27T11:15:19.194Z,23.56
2024-02-27T11:16:18.740Z,23.54
2024-02-27T11:17:18.841Z,23.53
2024-02-27T11:18:18.937Z,23.52
2024-02-27T11:19:18.972Z,23.52
2024-02-27T11:20:18.999Z,23.50
2024-02-27T11:21:19.058Z,23.50
2024-02-27T11:22:19.075Z,23.50
2024-02-27T11:23:19.124Z,23.49
2024-02-27T11:24:19.206Z,23.48
2024-02-27T11:25:19.639Z,23.47
2024-02-27T11:26:19.378Z,23.46
2024-02-27T11:27:19.435Z,23.45
2024-02-27T11:28:19.422Z,23.45
2024-02-27T11:29:19.516Z,23.44
2024-02-27T11:30:19.789Z,23.43
2024-02-27T11:31:19.674Z,23.43
2024-02-27T11:32:19.672Z,23.43
2024-02-27T11:33:19.999Z,23.46
2024-02-27T11:34:19.891Z,23.49
2024-02-27T11:35:20.206Z,23.50
2024-02-27T11:36:19.949Z,23.51
2024-02-27T11:37:20.028Z,23.52
2024-02-27T11:38:20.087Z,23.52
2024-02-27T11:39:20.156Z,23.48
2024-02-27T11:40:20.713Z,23.47
2024-02-27T11:41:20.243Z,23.48
2024-02-27T11:42:20.254Z,23.52
2024-02-27T11:43:20.308Z,23.54
2024-02-27T11:44:20.402Z,23.53
2024-02-27T11:45:20.534Z,23.52
2024-02-27T11:46:20.484Z,23.51
2024-02-27T11:47:20.518Z,23.51
2024-02-27T11:48:20.682Z,23.51
2024-02-27T11:49:20.703Z,23.49
2024-02-27T11:50:23.624Z,23.47
2024-02-27T11:51:20.685Z,23.46
2024-02-27T11:52:20.688Z,23.46
2024-02-27T11:53:20.697Z,23.46
2024-02-27T11:54:20.726Z,23.46
2024-02-27T11:55:20.699Z,23.46
2024-02-27T11:56:21.224Z,23.45
2024-02-27T11:57:20.738Z,23.44
2024-02-27T11:58:20.667Z,23.41
2024-02-27T11:59:20.729Z,23.38
2024-02-27T12:00:20.704Z,23.38
2024-02-27T12:01:22.093Z,23.38
2024-02-27T12:02:20.733Z,23.40
2024-02-27T12:03:21.010Z,23.43
2024-02-27T12:04:20.730Z,23.45
2024-02-27T12:05:20.766Z,23.47
2024-02-27T12:06:20.755Z,23.51
2024-02-27T12:07:20.727Z,23.53
2024-02-27T12:08:20.709Z,23.57
2024-02-27T12:09:20.717Z,23.60
2024-02-27T12:10:20.715Z,23.63
2024-02-27T12:11:20.842Z,23.65
2024-02-27T12:12:20.747Z,23.68
2024-02-27T12:13:22.330Z,23.70
2024-02-27T12:14:20.812Z,23.71
2024-02-27T12:15:20.897Z,23.72
2024-02-27T12:16:20.917Z,23.74
2024-02-27T12:17:20.974Z,23.76
2024-02-27T12:18:21.071Z,23.77
2024-02-27T12:19:21.150Z,23.78
2024-02-27T12:20:21.103Z,23.79
2024-02-27T12:21:21.231Z,23.81
2024-02-27T12:22:21.174Z,23.82
2024-02-27T12:23:21.200Z,23.83
2024-02-27T12:24:21.271Z,23.85
2024-02-27T12:25:21.295Z,23.85
2024-02-27T12:26:21.670Z,23.87
2024-02-27T12:27:21.397Z,23.88
2024-02-27T12:28:21.398Z,23.89
2024-02-27T12:29:21.399Z,23.87
2024-02-27T12:30:22.724Z,23.89
2024-02-27T12:31:21.725Z,23.89
2024-02-27T12:32:21.519Z,23.89
2024-02-27T12:33:21.711Z,23.88
2024-02-27T12:34:21.704Z,23.86
2024-02-27T12:35:21.706Z,23.84
2024-02-27T12:36:21.716Z,23.81
2024-02-27T12:37:21.817Z,23.78
2024-02-27T12:38:21.782Z,23.73
2024-02-27T12:39:21.868Z,23.70
2024-02-27T12:40:21.911Z,23.67
2024-02-27T12:41:22.189Z,23.62
2024-02-27T12:42:23.046Z,23.61
2024-02-27T12:43:22.034Z,23.58
2024-02-27T12:44:22.122Z,23.55
2024-02-27T12:45:22.194Z,23.53
2024-02-27T12:46:23.773Z,23.51
2024-02-27T12:47:22.249Z,23.49
2024-02-27T12:48:22.443Z,23.48
2024-02-27T12:49:22.325Z,23.47
2024-02-27T12:50:22.283Z,23.43
2024-02-27T12:51:22.340Z,23.42
2024-02-27T12:52:22.228Z,23.40
2024-02-27T12:53:22.268Z,23.38